createdAt,value
2023-01-24T00:00:22.225Z,3.1
2023-01-24T00:02:25.960Z,3.1
2023-01-24T00:04:29.522Z,3.1
2023-01-24T00:06:33.174Z,3.1
2023-01-24T00:08:36.794Z,3.1
2023-01-24T00:10:40.478Z,3.1
2023-01-24T00:12:47.150Z,3
2023-01-24T00:14:50.798Z,3
2023-01-24T00:16:54.481Z,3
2023-01-24T00:17:57.787Z,3
2023-01-24T00:22:05.137Z,3
2023-01-24T00:24:08.857Z,3
2023-01-24T00:26:15.421Z,2.9
2023-01-24T00:28:19.089Z,2.9
2023-01-24T00:30:22.743Z,2.9
2023-01-24T00:42:47.696Z,2.8
2023-01-24T00:46:55.004Z,2.8
2023-01-24T00:48:58.659Z,2.8
2023-01-24T00:51:02.312Z,2.8
2023-01-24T00:53:05.960Z,2.8
2023-01-24T00:55:12.724Z,2.8
2023-01-24T00:57:16.388Z,2.8
2023-01-24T00:59:20.070Z,2.8
2023-01-24T01:01:23.810Z,2.8
2023-01-24T01:05:31.068Z,2.8
2023-01-24T01:07:34.698Z,2.8
2023-01-24T01:09:41.416Z,2.8
2023-01-24T01:11:45.058Z,2.8
2023-01-24T01:13:48.813Z,2.7
2023-01-24T01:20:14.715Z,2.7
2023-01-24T01:22:21.437Z,2.8
2023-01-24T01:24:25.114Z,2.8
2023-01-24T01:26:28.781Z,2.8
2023-01-24T01:28:32.484Z,2.7
2023-01-24T01:34:43.427Z,2.8
2023-01-24T01:38:53.848Z,2.8
2023-01-24T01:45:04.803Z,2.7
2023-01-24T01:47:08.489Z,2.7
2023-01-24T01:49:12.228Z,2.7
2023-01-24T01:51:19.030Z,2.7
2023-01-24T01:53:22.648Z,2.7
2023-01-24T01:55:26.331Z,2.7
2023-01-24T01:57:29.944Z,2.7
2023-01-24T01:59:33.579Z,2.7
2023-01-24T02:01:37.309Z,2.6
2023-01-24T02:03:41.056Z,2.6
2023-01-24T02:05:47.659Z,2.6
2023-01-24T02:07:51.298Z,2.6
2023-01-24T02:09:54.953Z,2.6
2023-01-24T02:10:58.403Z,2.6
2023-01-24T02:13:02.181Z,2.6
2023-01-24T02:15:05.874Z,2.6
2023-01-24T02:19:16.207Z,2.6
2023-01-24T02:21:19.859Z,2.6
2023-01-24T02:23:23.530Z,2.6
2023-01-24T02:25:27.151Z,2.6
2023-01-24T02:27:30.787Z,2.6
2023-01-24T02:29:34.447Z,2.6
2023-01-24T02:31:38.189Z,2.6
2023-01-24T02:33:44.977Z,2.5
2023-01-24T02:35:48.660Z,2.5
2023-01-24T02:37:52.413Z,2.5
2023-01-24T02:39:56.129Z,2.5
2023-01-24T02:41:59.827Z,2.5
2023-01-24T02:44:03.533Z,2.5
2023-01-24T02:46:07.318Z,2.5
2023-01-24T02:48:14.099Z,2.5
2023-01-24T02:50:17.730Z,2.4
2023-01-24T02:52:21.397Z,2.5
2023-01-24T02:54:25.043Z,2.4
2023-01-24T02:56:28.763Z,2.4
2023-01-24T02:58:32.434Z,2.4
2023-01-24T03:00:36.146Z,2.4
2023-01-24T03:02:42.886Z,2.4
2023-01-24T03:04:46.507Z,2.4
2023-01-24T03:07:53.500Z,2.4
2023-01-24T03:09:57.241Z,2.3
2023-01-24T03:12:00.963Z,2.3
2023-01-24T03:14:04.667Z,2.3
2023-01-24T03:16:11.399Z,2.3
2023-01-24T03:18:14.985Z,2.3
2023-01-24T03:22:22.357Z,2.3
2023-01-24T03:24:26.026Z,2.3
2023-01-24T03:28:33.509Z,2.2
2023-01-24T03:30:40.301Z,2.2
2023-01-24T03:32:43.988Z,2.2
2023-01-24T03:34:47.682Z,2.2
2023-01-24T03:36:51.355Z,2.2
2023-01-24T03:38:55.060Z,2.2
2023-01-24T03:43:02.387Z,2.2
2023-01-24T03:47:12.911Z,2.2
2023-01-24T03:49:16.591Z,2.1
2023-01-24T03:53:23.987Z,2.2
2023-01-24T03:57:31.352Z,2.1
2023-01-24T03:59:38.166Z,2.2
2023-01-24T04:01:41.821Z,2.1
2023-01-24T04:04:49.057Z,2.1
2023-01-24T04:06:52.723Z,2.1
2023-01-24T04:08:56.465Z,2.1
2023-01-24T04:11:00.190Z,2.1
2023-01-24T04:13:06.991Z,2.1
2023-01-24T04:15:10.682Z,2.1
2023-01-24T04:17:14.369Z,2.1
2023-01-24T04:19:18.061Z,2.1
2023-01-24T04:21:23.366Z,2
2023-01-24T04:23:27.074Z,2
2023-01-24T04:25:30.808Z,2
2023-01-24T04:27:37.582Z,2
2023-01-24T04:29:41.345Z,2
2023-01-24T04:31:45.113Z,2
2023-01-24T04:33:48.737Z,2
2023-01-24T04:35:52.452Z,2
2023-01-24T04:37:56.138Z,2
2023-01-24T04:39:59.865Z,2
2023-01-24T04:42:06.676Z,2
2023-01-24T04:44:10.341Z,2
2023-01-24T04:46:14.067Z,1.9
2023-01-24T04:48:17.804Z,2
2023-01-24T04:50:21.470Z,2
2023-01-24T04:52:25.114Z,2
2023-01-24T04:54:28.798Z,2
2023-01-24T04:56:35.549Z,2
2023-01-24T04:58:39.235Z,2
2023-01-24T05:00:42.962Z,2
2023-01-24T05:03:05.479Z,2
2023-01-24T05:05:09.165Z,2
2023-01-24T05:07:12.848Z,1.9
2023-01-24T05:09:19.662Z,1.9
2023-01-24T05:11:23.297Z,2
2023-01-24T05:13:26.926Z,2
2023-01-24T05:15:30.617Z,2
2023-01-24T05:21:41.612Z,1.9
2023-01-24T05:23:48.238Z,1.9
2023-01-24T05:25:51.934Z,1.9
2023-01-24T05:29:59.331Z,1.9
2023-01-24T05:32:03.110Z,1.9
2023-01-24T05:34:06.605Z,1.9
2023-01-24T05:36:10.256Z,1.9
2023-01-24T05:38:16.953Z,1.9
2023-01-24T05:40:20.706Z,1.9
2023-01-24T05:42:24.439Z,1.9
2023-01-24T05:44:28.215Z,1.9
2023-01-24T05:46:31.829Z,1.9
2023-01-24T05:48:35.573Z,1.9
2023-01-24T05:50:39.212Z,1.8
2023-01-24T05:52:46.067Z,1.8
2023-01-24T05:54:49.763Z,1.8
2023-01-24T05:56:53.481Z,1.8
2023-01-24T05:57:56.923Z,1.8
2023-01-24T06:00:00.658Z,1.8
2023-01-24T06:02:04.415Z,1.8
2023-01-24T06:04:08.169Z,1.9
2023-01-24T06:06:15.056Z,1.8
2023-01-24T06:08:18.796Z,1.8
2023-01-24T06:10:22.556Z,1.8
2023-01-24T06:12:26.336Z,1.8
2023-01-24T06:16:33.649Z,1.8
2023-01-24T06:18:37.309Z,1.8
2023-01-24T06:20:44.138Z,1.8
2023-01-24T06:22:49.367Z,1.8
2023-01-24T06:24:51.632Z,1.8
2023-01-24T06:28:59.024Z,1.8
2023-01-24T06:31:02.915Z,1.8
2023-01-24T06:33:06.492Z,1.8
2023-01-24T06:39:20.713Z,1.8
2023-01-24T06:41:24.437Z,1.7
2023-01-24T06:43:28.172Z,1.7
2023-01-24T06:45:31.844Z,1.7
2023-01-24T06:47:35.480Z,1.7
2023-01-24T06:49:42.336Z,1.8
2023-01-24T06:51:46.058Z,1.7
2023-01-24T06:53:49.803Z,1.8
2023-01-24T06:54:53.223Z,1.7
2023-01-24T06:56:56.992Z,1.7
2023-01-24T06:59:00.722Z,1.7
2023-01-24T07:01:04.471Z,1.7
2023-01-24T07:03:11.336Z,1.6
2023-01-24T07:05:15.007Z,1.6
2023-01-24T07:07:18.753Z,1.7
2023-01-24T07:09:22.430Z,1.6
2023-01-24T07:11:26.143Z,1.7
2023-01-24T07:15:33.595Z,1.6
2023-01-24T07:17:40.419Z,1.6
2023-01-24T07:19:44.167Z,1.6
2023-01-24T07:21:50.205Z,1.7
2023-01-24T07:23:51.669Z,1.6
2023-01-24T07:25:55.395Z,1.6
2023-01-24T07:34:16.775Z,1.7
2023-01-24T07:36:17.211Z,1.6
2023-01-24T07:38:20.861Z,1.7
2023-01-24T07:40:24.606Z,1.7
2023-01-24T07:42:28.334Z,1.7
2023-01-24T07:44:32.095Z,1.7
2023-01-24T07:46:38.871Z,1.7
2023-01-24T07:48:42.525Z,1.7
2023-01-24T07:50:46.277Z,1.7
2023-01-24T07:51:49.695Z,1.7
2023-01-24T07:53:53.391Z,1.6
2023-01-24T07:56:02.301Z,1.7
2023-01-24T07:58:00.878Z,1.6
2023-01-24T08:04:15.123Z,1.7
2023-01-24T08:06:18.876Z,1.7
2023-01-24T08:10:26.047Z,1.7
2023-01-24T08:12:29.748Z,1.7
2023-01-24T08:14:36.463Z,1.7
2023-01-24T08:18:43.842Z,1.6
2023-01-24T08:24:55.069Z,1.7
2023-01-24T08:29:05.487Z,1.6
2023-01-24T08:35:16.474Z,1.7
2023-01-24T08:39:28.741Z,1.7
2023-01-24T08:41:27.500Z,1.7
2023-01-24T08:43:34.252Z,1.7
2023-01-24T08:45:37.999Z,1.7
2023-01-24T08:47:41.738Z,1.7
2023-01-24T08:50:04.276Z,1.7
2023-01-24T08:52:08.005Z,1.7
2023-01-24T08:54:11.649Z,1.7
2023-01-24T08:56:18.452Z,1.7
2023-01-24T08:58:22.093Z,1.7
2023-01-24T09:00:25.742Z,1.7
2023-01-24T09:02:29.497Z,1.7
2023-01-24T09:06:36.875Z,1.7
2023-01-24T09:08:40.627Z,1.8
2023-01-24T09:10:47.418Z,1.8
2023-01-24T09:12:51.064Z,1.8
2023-01-24T09:14:54.814Z,1.8
2023-01-24T09:16:58.563Z,1.8
2023-01-24T09:19:02.329Z,1.8
2023-01-24T09:21:05.997Z,1.8
2023-01-24T09:23:09.659Z,1.8
2023-01-24T09:25:16.548Z,1.9
2023-01-24T09:27:20.270Z,1.9
2023-01-24T09:29:23.949Z,1.9
2023-01-24T09:31:27.746Z,2
2023-01-24T09:33:31.452Z,2
2023-01-24T09:35:35.175Z,1.9
2023-01-24T09:39:45.699Z,2
2023-01-24T09:44:56.434Z,1.9
2023-01-24T09:47:00.139Z,1.8
2023-01-24T09:49:03.767Z,1.9
2023-01-24T09:51:07.530Z,1.8
2023-01-24T09:53:14.213Z,1.8
2023-01-24T09:55:17.998Z,1.8
2023-01-24T09:57:21.689Z,1.9
2023-01-24T09:59:25.395Z,1.9
2023-01-24T10:01:29.026Z,1.9
2023-01-24T10:03:32.826Z,1.8
2023-01-24T10:05:36.598Z,1.9
2023-01-24T10:07:43.423Z,1.9
2023-01-24T10:09:47.185Z,2
2023-01-24T10:11:50.913Z,2
2023-01-24T10:13:54.698Z,2
2023-01-24T10:15:58.419Z,2.1
2023-01-24T10:18:03.599Z,2.1
2023-01-24T10:20:07.245Z,2.1
2023-01-24T10:22:14.012Z,2.1
2023-01-24T10:24:17.737Z,2.1
2023-01-24T10:26:21.427Z,2.1
2023-01-24T10:28:25.149Z,2.2
2023-01-24T10:30:29.028Z,2.1
2023-01-24T10:32:32.583Z,2.1
2023-01-24T10:34:36.371Z,2.2
2023-01-24T10:38:46.849Z,2.2
2023-01-24T10:40:50.612Z,2.1
2023-01-24T10:41:54.053Z,2.1
2023-01-24T10:43:57.794Z,2.1
2023-01-24T10:46:01.501Z,2.1
2023-01-24T10:48:05.208Z,2.1
2023-01-24T10:52:15.679Z,2.1
2023-01-24T10:54:19.319Z,2.1
2023-01-24T11:02:34.071Z,2.1
2023-01-24T11:08:48.201Z,2.1
2023-01-24T11:10:51.847Z,2.2
2023-01-24T11:12:56.387Z,2.2
2023-01-24T11:14:59.172Z,2.1
2023-01-24T11:17:02.895Z,2.2
2023-01-24T11:19:09.551Z,2.2
2023-01-24T11:21:13.270Z,2.2
2023-01-24T11:23:16.945Z,2.2
2023-01-24T11:25:21.153Z,2.2
2023-01-24T11:29:28.081Z,2.2
2023-01-24T11:31:31.799Z,2.3
2023-01-24T11:33:38.529Z,2.3
2023-01-24T11:35:42.292Z,2.2
2023-01-24T11:37:46.035Z,2.3
2023-01-24T11:42:56.680Z,2.3
2023-01-24T11:47:07.197Z,2.3
2023-01-24T11:49:10.806Z,2.3
2023-01-24T11:51:14.739Z,2.3
2023-01-24T11:53:18.289Z,2.3
2023-01-24T11:55:22.381Z,2.3
2023-01-24T11:57:25.692Z,2.4
2023-01-24T11:59:29.336Z,2.5
2023-01-24T12:01:36.048Z,2.4
2023-01-24T12:03:39.733Z,2.4
2023-01-24T12:05:43.331Z,2.5
2023-01-24T12:07:47.013Z,2.4
2023-01-24T12:09:50.745Z,2.4
2023-01-24T12:11:54.390Z,2.4
2023-01-24T12:13:58.061Z,2.4
2023-01-24T12:16:05.004Z,2.4
2023-01-24T12:18:08.584Z,2.4
2023-01-24T12:20:24.780Z,2.5
2023-01-24T12:22:15.971Z,2.5
2023-01-24T12:24:19.768Z,2.5
2023-01-24T12:32:37.797Z,2.5
2023-01-24T12:39:07.792Z,2.5
2023-01-24T12:41:11.533Z,2.5
2023-01-24T12:43:18.322Z,2.6
2023-01-24T12:45:22.566Z,2.6
2023-01-24T12:47:25.865Z,2.6
2023-01-24T12:49:43.149Z,2.6
2023-01-24T12:51:32.885Z,2.5
2023-01-24T12:53:36.544Z,2.5
2023-01-24T12:55:40.250Z,2.5
2023-01-24T12:57:46.862Z,2.5
2023-01-24T13:01:54.275Z,2.4
2023-01-24T13:03:57.955Z,2.3
2023-01-24T13:06:01.721Z,2.3
2023-01-24T13:10:09.012Z,2.4
2023-01-24T13:12:15.843Z,2.4
2023-01-24T13:14:19.574Z,2.4
2023-01-24T13:16:23.344Z,2.3
2023-01-24T13:18:26.995Z,2.2
2023-01-24T13:20:30.760Z,2.2
2023-01-24T13:22:34.462Z,2.2
2023-01-24T13:28:48.749Z,2.3
2023-01-24T13:30:52.490Z,2.3
2023-01-24T13:31:55.961Z,2.3
2023-01-24T13:33:59.557Z,2.3
2023-01-24T13:36:03.185Z,2.3
2023-01-24T13:38:06.851Z,2.3
2023-01-24T13:42:17.402Z,2.3
2023-01-24T13:54:42.701Z,2.2
2023-01-24T13:56:46.433Z,2.1
2023-01-24T13:58:50.065Z,2.1
2023-01-24T14:00:53.752Z,2.1
2023-01-24T14:02:57.517Z,2.1
2023-01-24T14:05:01.257Z,2.1
2023-01-24T14:07:04.872Z,2.2
2023-01-24T14:09:11.597Z,2
2023-01-24T14:11:15.349Z,2
2023-01-24T14:13:19.110Z,2
2023-01-24T14:17:26.488Z,1.9
2023-01-24T14:19:30.174Z,1.9
2023-01-24T14:21:33.898Z,2
2023-01-24T14:23:40.742Z,2
2023-01-24T14:25:44.489Z,2
2023-01-24T14:27:48.329Z,2
2023-01-24T14:28:51.682Z,2.1
2023-01-24T14:30:55.579Z,2
2023-01-24T14:32:59.139Z,2.1
2023-01-24T14:35:02.780Z,2
2023-01-24T14:37:09.619Z,1.9
2023-01-24T14:39:13.328Z,1.9
2023-01-24T14:41:17.012Z,1.9
2023-01-24T14:43:20.738Z,1.9
2023-01-24T14:45:24.467Z,1.9
2023-01-24T14:49:31.912Z,1.8
2023-01-24T14:51:38.755Z,1.8
2023-01-24T14:53:42.436Z,1.8
2023-01-24T14:55:46.221Z,1.8
2023-01-24T14:57:49.900Z,1.8
2023-01-24T14:59:53.592Z,1.8
2023-01-24T15:01:57.273Z,1.8
2023-01-24T15:04:01.021Z,1.7
2023-01-24T15:06:07.842Z,1.7
2023-01-24T15:08:11.497Z,1.7
2023-01-24T15:10:15.231Z,1.7
2023-01-24T15:12:18.950Z,1.7
2023-01-24T15:14:22.601Z,1.6
2023-01-24T15:16:26.307Z,1.6
2023-01-24T15:18:29.993Z,1.6
2023-01-24T15:20:36.794Z,1.5
2023-01-24T15:25:47.570Z,1.5
2023-01-24T15:27:51.310Z,1.5
2023-01-24T15:29:55.084Z,1.6
2023-01-24T15:31:58.790Z,1.6
2023-01-24T15:36:09.247Z,1.5
2023-01-24T15:38:12.881Z,1.5
2023-01-24T15:40:16.529Z,1.5
2023-01-24T15:42:20.202Z,1.5
2023-01-24T15:44:23.945Z,1.5
2023-01-24T15:46:27.764Z,1.4
2023-01-24T15:48:34.569Z,1.4
2023-01-24T15:56:53.167Z,1.4
2023-01-24T15:58:53.108Z,1.4
2023-01-24T16:09:14.763Z,1.4
2023-01-24T16:11:18.433Z,1.4
2023-01-24T16:13:22.089Z,1.4
2023-01-24T16:17:34.130Z,1.4
2023-01-24T16:21:41.434Z,1.4
2023-01-24T16:25:51.397Z,1.4
2023-01-24T16:27:55.060Z,1.4
2023-01-24T16:30:23.448Z,1.4
2023-01-24T16:32:27.094Z,1.4
2023-01-24T16:34:30.859Z,1.4
2023-01-24T16:36:37.649Z,1.4
2023-01-24T16:38:41.361Z,1.5
2023-01-24T16:40:45.056Z,1.5
2023-01-24T16:42:48.781Z,1.4
2023-01-24T16:44:52.461Z,1.5
2023-01-24T16:46:56.109Z,1.5
2023-01-24T16:48:59.826Z,1.5
2023-01-24T16:51:06.488Z,1.4
2023-01-24T16:55:13.904Z,1.4
2023-01-24T16:57:17.603Z,1.5
2023-01-24T16:59:21.296Z,1.4
2023-01-24T17:05:35.676Z,1.4
2023-01-24T17:07:39.365Z,1.4
2023-01-24T17:09:43.026Z,1.4
2023-01-24T17:11:46.693Z,1.4
2023-01-24T17:13:50.319Z,1.4
2023-01-24T17:15:54.067Z,1.3
2023-01-24T17:17:57.739Z,1.3
2023-01-24T17:20:05.017Z,1.3
2023-01-24T17:22:08.343Z,1.3
2023-01-24T17:24:12.146Z,1.3
2023-01-24T17:25:15.415Z,1.3
2023-01-24T17:27:19.110Z,1.3
2023-01-24T17:29:22.810Z,1.4
2023-01-24T17:33:33.245Z,1.3
2023-01-24T17:37:40.683Z,1.3
2023-01-24T17:39:44.436Z,1.4
2023-01-24T17:43:53.303Z,1.4
2023-01-24T17:45:55.598Z,1.3
2023-01-24T17:48:02.377Z,1.2
2023-01-24T17:50:06.421Z,1.3
2023-01-24T17:54:13.533Z,1.2
2023-01-24T17:56:17.295Z,1.3
2023-01-24T17:58:21.062Z,1.2
2023-01-24T18:00:24.803Z,1.2
2023-01-24T18:02:31.687Z,1.2
2023-01-24T18:06:39.095Z,1.2
2023-01-24T18:08:42.841Z,1.2
2023-01-24T18:10:46.605Z,1.2
2023-01-24T18:12:50.301Z,1.2
2023-01-24T18:14:53.972Z,1.3
2023-01-24T18:17:00.791Z,1.2
2023-01-24T18:19:04.487Z,1.2
2023-01-24T18:21:08.198Z,1.3
2023-01-24T18:22:11.652Z,1.2
2023-01-24T18:24:15.460Z,1.3
2023-01-24T18:28:22.892Z,1.3
2023-01-24T18:32:33.559Z,1.2
2023-01-24T18:36:40.947Z,1.2
2023-01-24T18:38:44.612Z,1.2
2023-01-24T18:40:48.357Z,1.2
2023-01-24T18:42:52.110Z,1.2
2023-01-24T18:44:58.886Z,1.2
2023-01-24T18:47:02.636Z,1.2
2023-01-24T18:49:06.281Z,1.3
2023-01-24T18:51:10.003Z,1.3
2023-01-24T18:53:13.652Z,1.2
2023-01-24T18:57:21.084Z,1.2
2023-01-24T19:01:31.657Z,1.2
2023-01-24T19:03:35.299Z,1.3
2023-01-24T19:05:39.084Z,1.3
2023-01-24T19:07:42.792Z,1.2
2023-01-24T19:09:46.486Z,1.2
2023-01-24T19:11:50.242Z,1.3
2023-01-24T19:13:57.012Z,1.1
2023-01-24T19:16:00.826Z,1.1
2023-01-24T19:18:04.392Z,1.1
2023-01-24T19:19:07.771Z,1.1
2023-01-24T19:21:11.435Z,1.1
2023-01-24T19:23:15.183Z,1.1
2023-01-24T19:25:18.944Z,1.1
2023-01-24T19:27:25.818Z,1
2023-01-24T19:29:29.473Z,1
2023-01-24T19:37:44.156Z,0.9
2023-01-24T19:39:47.936Z,0.9
2023-01-24T19:41:54.805Z,0.9
2023-01-24T19:48:05.873Z,0.9
2023-01-24T19:50:09.665Z,0.9
2023-01-24T19:56:24.064Z,0.8
2023-01-24T19:58:27.806Z,0.8
2023-01-24T20:00:31.497Z,0.9
2023-01-24T20:02:35.346Z,0.9
2023-01-24T20:04:51.319Z,0.9
2023-01-24T20:06:42.757Z,0.9
2023-01-24T20:08:46.514Z,0.9
2023-01-24T20:10:53.400Z,0.9
2023-01-24T20:12:57.122Z,0.9
2023-01-24T20:15:00.824Z,0.9
2023-01-24T20:17:07.073Z,0.8
2023-01-24T20:19:18.863Z,0.9
2023-01-24T20:21:14.517Z,0.8
2023-01-24T20:23:20.812Z,0.8
2023-01-24T20:29:34.255Z,0.9
2023-01-24T20:31:38.106Z,0.9
2023-01-24T20:33:41.701Z,0.9
2023-01-24T20:35:47.911Z,0.8
2023-01-24T20:37:51.593Z,0.9
2023-01-24T20:39:55.342Z,0.9
2023-01-24T20:42:01.592Z,0.8
2023-01-24T20:44:06.956Z,0.8
2023-01-24T20:46:09.019Z,0.8
2023-01-24T20:48:15.133Z,0.8
2023-01-24T20:54:28.779Z,0.9
2023-01-24T21:06:55.952Z,0.9
2023-01-24T21:08:59.754Z,0.8
2023-01-24T21:11:03.471Z,0.8
2023-01-24T21:15:13.395Z,0.7
2023-01-24T21:19:23.461Z,0.8
2023-01-24T21:21:27.195Z,0.8
2023-01-24T21:25:36.996Z,0.8
2023-01-24T21:27:40.726Z,0.8
2023-01-24T21:29:44.382Z,0.8
2023-01-24T21:31:50.661Z,0.8
2023-01-24T21:33:54.194Z,0.7
2023-01-24T21:35:57.947Z,0.8
2023-01-24T21:38:04.208Z,0.7
2023-01-24T21:40:07.854Z,0.7
2023-01-24T21:44:17.878Z,0.8
2023-01-24T21:48:25.313Z,0.7
2023-01-24T21:54:39.130Z,0.7
2023-01-24T21:56:45.372Z,0.6
2023-01-24T21:58:49.056Z,0.7
2023-01-24T22:02:59.184Z,0.7
2023-01-24T22:05:02.872Z,0.6
2023-01-24T22:07:06.612Z,0.7
2023-01-24T22:12:15.115Z,0.6
2023-01-24T22:14:18.801Z,0.6
2023-01-24T22:16:22.560Z,0.6
2023-01-24T22:18:28.801Z,0.6
2023-01-24T22:20:32.503Z,0.6
2023-01-24T22:26:46.146Z,0.6
2023-01-24T22:30:56.064Z,0.6
2023-01-24T22:32:59.731Z,0.6
2023-01-24T22:35:03.368Z,0.6
2023-01-24T22:39:13.404Z,0.5
2023-01-24T22:41:17.120Z,0.6
2023-01-24T22:43:23.411Z,0.6
2023-01-24T22:45:27.209Z,0.6
2023-01-24T22:47:30.879Z,0.6
2023-01-24T22:49:37.083Z,0.6
2023-01-24T22:51:40.735Z,0.6
2023-01-24T22:53:44.499Z,0.6
2023-01-24T22:55:50.765Z,0.5
2023-01-24T23:02:04.368Z,0.5
2023-01-24T23:04:08.109Z,0.5
2023-01-24T23:16:35.720Z,0.5
2023-01-24T23:18:39.403Z,0.5
2023-01-24T23:20:45.680Z,0.5
2023-01-24T23:22:43.382Z,0.5
2023-01-24T23:28:57.077Z,0.4
2023-01-24T23:31:00.818Z,0.4
2023-01-24T23:33:07.128Z,0.4
2023-01-24T23:37:14.516Z,0.4
2023-01-24T23:39:20.649Z,0.4
2023-01-24T23:41:24.299Z,0.4
2023-01-24T23:43:27.997Z,0.3
2023-01-24T23:45:34.281Z,0.3
2023-01-24T23:47:37.983Z,0.3
2023-01-24T23:49:41.670Z,0.2
2023-01-24T23:51:47.938Z,0.2
2023-01-24T23:53:51.617Z,0.3
2023-01-24T23:55:55.353Z,0.3
2023-01-24T23:58:01.693Z,0.2
